createdAt,value
2023-02-23T00:01:22.237Z,66.10
2023-02-23T00:03:49.924Z,66.00
2023-02-23T00:06:17.794Z,66.00
2023-02-23T00:08:47.949Z,65.90
2023-02-23T00:11:15.713Z,65.90
2023-02-23T00:13:46.352Z,65.70
2023-02-23T00:16:14.601Z,65.70
2023-02-23T00:18:50.964Z,65.60
2023-02-23T00:21:20.012Z,65.40
2023-02-23T00:23:54.428Z,65.30
2023-02-23T00:26:22.133Z,65.20
2023-02-23T00:28:51.167Z,65.20
2023-02-23T00:31:18.382Z,65.20
2023-02-23T00:33:45.549Z,65.00
2023-02-23T00:36:14.440Z,64.90
2023-02-23T00:38:42.021Z,64.90
2023-02-23T00:41:10.223Z,64.70
2023-02-23T00:43:38.311Z,64.80
2023-02-23T00:46:06.308Z,64.80
2023-02-23T00:48:33.903Z,64.80
2023-02-23T00:51:02.166Z,64.90
2023-02-23T00:53:29.217Z,65.20
2023-02-23T00:55:56.633Z,64.80
2023-02-23T00:58:27.036Z,64.80
2023-02-23T01:00:53.927Z,64.70
2023-02-23T01:03:21.023Z,64.60
2023-02-23T01:05:50.303Z,64.60
2023-02-23T01:08:17.932Z,64.80
2023-02-23T01:10:52.512Z,64.80
2023-02-23T01:13:20.565Z,64.80
2023-02-23T01:15:48.302Z,64.80
2023-02-23T01:18:17.025Z,65.00
2023-02-23T01:20:44.499Z,65.10
2023-02-23T01:23:12.929Z,65.00
2023-02-23T01:25:41.301Z,65.10
2023-02-23T01:28:09.177Z,65.10
2023-02-23T01:30:36.269Z,65.10
2023-02-23T01:33:03.272Z,65.00
2023-02-23T01:35:30.182Z,65.20
2023-02-23T01:37:57.111Z,64.80
2023-02-23T01:40:30.595Z,64.70
2023-02-23T01:43:13.102Z,64.70
2023-02-23T01:45:41.403Z,64.70
2023-02-23T01:48:13.109Z,64.70
2023-02-23T01:50:45.998Z,64.60
2023-02-23T01:53:12.966Z,64.80
2023-02-23T01:55:40.083Z,64.80
2023-02-23T01:58:15.332Z,64.80
2023-02-23T02:00:47.880Z,64.90
2023-02-23T02:03:35.421Z,65.20
2023-02-23T02:06:03.908Z,65.10
2023-02-23T02:08:31.823Z,65.20
2023-02-23T02:10:58.706Z,65.10
2023-02-23T02:13:28.045Z,65.00
2023-02-23T02:16:06.163Z,65.00
2023-02-23T02:18:38.766Z,64.90
2023-02-23T02:21:18.001Z,65.00
2023-02-23T02:23:48.074Z,64.90
2023-02-23T02:26:18.126Z,64.90
2023-02-23T02:28:57.245Z,65.10
2023-02-23T02:31:27.272Z,65.00
2023-02-23T02:34:12.656Z,65.10
2023-02-23T02:36:58.200Z,65.30
2023-02-23T02:39:46.802Z,65.20
2023-02-23T02:42:23.840Z,65.40
2023-02-23T02:45:09.174Z,65.50
2023-02-23T02:47:39.395Z,65.50
2023-02-23T02:50:22.179Z,65.60
2023-02-23T02:52:54.532Z,65.60
2023-02-23T02:55:29.264Z,65.40
2023-02-23T02:57:58.079Z,65.50
2023-02-23T03:01:03.559Z,65.70
2023-02-23T03:03:53.969Z,65.80
2023-02-23T03:06:42.362Z,65.40
2023-02-23T03:09:36.894Z,65.20
2023-02-23T03:12:22.333Z,65.30
2023-02-23T03:15:34.881Z,65.30
2023-02-23T03:18:39.255Z,65.50
2023-02-23T03:21:27.496Z,66.00
2023-02-23T03:24:26.597Z,66.00
2023-02-23T03:27:15.555Z,66.00
2023-02-23T03:30:12.520Z,65.70
2023-02-23T03:33:13.074Z,65.50
2023-02-23T03:36:01.454Z,65.50
2023-02-23T03:38:54.925Z,65.70
2023-02-23T03:41:41.743Z,65.70
2023-02-23T03:44:33.830Z,65.50
2023-02-23T03:47:19.610Z,65.60
2023-02-23T03:50:06.284Z,66.10
2023-02-23T03:52:55.042Z,66.10
2023-02-23T03:55:44.630Z,65.90
2023-02-23T03:58:32.651Z,65.60
2023-02-23T04:01:20.289Z,65.70
2023-02-23T04:04:07.968Z,65.70
2023-02-23T04:06:55.816Z,65.70
2023-02-23T04:09:41.244Z,65.90
2023-02-23T04:12:52.955Z,65.90
2023-02-23T04:15:39.794Z,65.70
2023-02-23T04:18:07.841Z,65.80
2023-02-23T04:20:34.778Z,65.90
2023-02-23T04:23:01.685Z,65.60
2023-02-23T04:25:29.620Z,65.70
2023-02-23T04:27:56.492Z,66.00
2023-02-23T04:30:28.495Z,66.00
2023-02-23T04:32:56.058Z,65.50
2023-02-23T04:35:22.968Z,65.50
2023-02-23T04:37:49.942Z,65.50
2023-02-23T04:40:16.880Z,65.80
2023-02-23T04:42:43.855Z,65.70
2023-02-23T04:45:11.037Z,65.80
2023-02-23T04:47:38.015Z,65.80
2023-02-23T04:50:05.235Z,65.30
2023-02-23T04:52:32.244Z,65.10
2023-02-23T04:54:59.099Z,65.00
2023-02-23T04:57:26.398Z,65.10
2023-02-23T04:59:53.249Z,65.30
2023-02-23T05:02:20.095Z,65.20
2023-02-23T05:04:47.035Z,65.10
2023-02-23T05:07:13.895Z,65.10
2023-02-23T05:09:41.366Z,65.10
2023-02-23T05:12:08.668Z,65.20
2023-02-23T05:14:35.713Z,65.20
2023-02-23T05:17:02.630Z,65.20
2023-02-23T05:19:29.596Z,65.00
2023-02-23T05:21:56.451Z,65.10
2023-02-23T05:24:23.326Z,65.50
2023-02-23T05:26:50.146Z,65.70
2023-02-23T05:29:17.822Z,65.60
2023-02-23T05:31:44.992Z,65.70
2023-02-23T05:34:11.997Z,66.00
2023-02-23T05:36:38.880Z,65.80
2023-02-23T05:39:05.786Z,65.70
2023-02-23T05:41:32.693Z,65.80
2023-02-23T05:43:59.566Z,65.90
2023-02-23T05:46:27.375Z,65.80
2023-02-23T05:48:58.917Z,65.60
2023-02-23T05:51:26.349Z,65.80
2023-02-23T05:53:53.234Z,65.80
2023-02-23T05:56:22.992Z,65.70
2023-02-23T05:58:50.820Z,65.80
2023-02-23T06:01:18.075Z,65.70
2023-02-23T06:03:45.485Z,65.80
2023-02-23T06:06:12.716Z,66.00
2023-02-23T06:08:39.796Z,65.90
2023-02-23T06:11:06.894Z,65.80
2023-02-23T06:13:34.006Z,65.70
2023-02-23T06:16:00.869Z,66.00
2023-02-23T06:18:28.214Z,66.10
2023-02-23T06:20:55.154Z,65.90
2023-02-23T06:23:22.471Z,66.20
2023-02-23T06:25:49.347Z,66.50
2023-02-23T06:28:16.289Z,66.30
2023-02-23T06:30:45.418Z,65.90
2023-02-23T06:33:13.044Z,65.90
2023-02-23T06:35:40.048Z,65.80
2023-02-23T06:38:06.947Z,65.90
2023-02-23T06:40:33.839Z,66.00
2023-02-23T06:43:00.726Z,66.20
2023-02-23T06:45:27.636Z,66.30
2023-02-23T06:47:54.496Z,66.60
2023-02-23T06:50:21.672Z,66.70
2023-02-23T06:52:49.503Z,66.70
2023-02-23T06:55:16.957Z,66.80
2023-02-23T06:57:44.175Z,67.00
2023-02-23T07:00:15.282Z,67.20
2023-02-23T07:02:42.248Z,67.10
2023-02-23T07:05:09.273Z,67.00
2023-02-23T07:07:36.486Z,67.10
2023-02-23T07:10:05.002Z,67.30
2023-02-23T07:12:31.955Z,67.20
2023-02-23T07:14:58.790Z,67.10
2023-02-23T07:17:25.724Z,67.20
2023-02-23T07:19:52.610Z,67.20
2023-02-23T07:22:19.511Z,67.30
2023-02-23T07:24:46.899Z,67.30
2023-02-23T07:27:13.945Z,67.40
2023-02-23T07:29:40.824Z,67.40
2023-02-23T07:32:07.792Z,67.50
2023-02-23T07:34:34.749Z,67.80
2023-02-23T07:37:01.682Z,67.70
2023-02-23T07:39:28.621Z,67.60
2023-02-23T07:41:55.472Z,67.80
2023-02-23T07:44:22.440Z,67.90
2023-02-23T07:46:49.694Z,67.70
2023-02-23T07:49:16.523Z,67.80
2023-02-23T07:51:43.399Z,67.80
2023-02-23T07:54:10.302Z,67.70
2023-02-23T07:56:37.296Z,67.80
2023-02-23T07:59:04.186Z,67.90
2023-02-23T08:01:31.116Z,67.90
2023-02-23T08:03:58.244Z,68.00
2023-02-23T08:06:25.217Z,68.10
2023-02-23T08:08:52.137Z,68.00
2023-02-23T08:11:19.794Z,68.00
2023-02-23T08:13:47.159Z,67.80
2023-02-23T08:16:14.992Z,67.70
2023-02-23T08:18:42.064Z,67.80
2023-02-23T08:21:08.995Z,67.80
2023-02-23T08:23:36.592Z,67.80
2023-02-23T08:26:04.035Z,67.70
2023-02-23T08:28:30.958Z,67.70
2023-02-23T08:30:59.630Z,67.80
2023-02-23T08:33:26.779Z,67.60
2023-02-23T08:35:53.806Z,67.50
2023-02-23T08:38:20.717Z,67.50
2023-02-23T08:40:47.710Z,67.50
2023-02-23T08:43:14.630Z,67.40
2023-02-23T08:45:41.608Z,67.40
2023-02-23T08:48:09.046Z,67.40
2023-02-23T08:50:36.060Z,67.50
2023-02-23T08:53:02.972Z,67.50
2023-02-23T08:55:29.896Z,67.60
2023-02-23T08:57:56.816Z,67.50
2023-02-23T09:00:23.835Z,67.40
2023-02-23T09:02:50.861Z,67.50
2023-02-23T09:05:17.806Z,67.20
2023-02-23T09:07:45.394Z,67.30
2023-02-23T09:10:13.933Z,67.40
2023-02-23T09:12:41.128Z,67.40
2023-02-23T09:15:08.533Z,67.20
2023-02-23T09:17:35.475Z,67.20
2023-02-23T09:20:02.407Z,67.30
2023-02-23T09:22:29.294Z,67.10
2023-02-23T09:24:56.174Z,67.40
2023-02-23T09:27:23.084Z,67.60
2023-02-23T09:29:49.943Z,67.70
2023-02-23T09:32:16.933Z,68.10
2023-02-23T09:34:44.055Z,68.40
2023-02-23T09:37:10.925Z,68.50
2023-02-23T09:39:39.084Z,68.10
2023-02-23T09:42:15.600Z,67.50
2023-02-23T09:45:04.402Z,66.80
2023-02-23T09:47:46.500Z,66.60
2023-02-23T09:50:16.876Z,66.80
2023-02-23T09:52:45.526Z,66.90
2023-02-23T09:55:13.832Z,66.90
2023-02-23T09:57:43.171Z,66.80
2023-02-23T10:00:13.720Z,66.70
2023-02-23T10:02:51.229Z,66.70
2023-02-23T10:05:18.301Z,66.60
2023-02-23T10:07:51.790Z,66.60
2023-02-23T10:10:40.013Z,66.70
2023-02-23T10:13:26.384Z,67.00
2023-02-23T10:15:57.877Z,67.10
2023-02-23T10:18:44.981Z,67.10
2023-02-23T10:21:18.502Z,67.10
2023-02-23T10:23:49.714Z,67.60
2023-02-23T10:26:18.670Z,67.80
2023-02-23T10:28:46.920Z,67.60
2023-02-23T10:31:23.678Z,67.10
2023-02-23T10:33:52.300Z,66.60
2023-02-23T10:36:24.300Z,66.30
2023-02-23T10:38:51.220Z,66.00
2023-02-23T10:41:18.403Z,65.80
2023-02-23T10:43:46.029Z,65.60
2023-02-23T10:46:24.492Z,65.40
2023-02-23T10:48:53.024Z,65.30
2023-02-23T10:51:28.469Z,65.30
2023-02-23T10:53:55.691Z,65.20
2023-02-23T10:56:23.570Z,65.20
2023-02-23T10:58:55.254Z,64.90
2023-02-23T11:01:36.305Z,64.30
2023-02-23T11:04:14.842Z,64.10
2023-02-23T11:06:43.212Z,63.60
2023-02-23T11:09:46.504Z,63.30
2023-02-23T11:12:22.029Z,63.00
2023-02-23T11:14:50.094Z,62.50
2023-02-23T11:17:33.932Z,61.80
2023-02-23T11:20:02.766Z,61.30
2023-02-23T11:22:37.334Z,61.10
2023-02-23T11:25:14.579Z,60.60
2023-02-23T11:27:45.837Z,60.20
2023-02-23T11:30:13.304Z,60.00
2023-02-23T11:32:43.618Z,60.00
2023-02-23T11:35:12.215Z,59.70
2023-02-23T11:37:39.314Z,59.70
2023-02-23T11:40:23.944Z,59.80
2023-02-23T11:42:53.713Z,60.00
2023-02-23T11:45:21.352Z,60.20
2023-02-23T11:47:49.816Z,60.30
2023-02-23T11:50:27.575Z,60.60
2023-02-23T11:53:03.145Z,60.80
2023-02-23T11:55:31.675Z,61.20
2023-02-23T11:58:08.900Z,61.20
2023-02-23T12:00:35.748Z,61.30
2023-02-23T12:03:03.129Z,61.40
2023-02-23T12:05:31.502Z,61.50
2023-02-23T12:07:58.430Z,61.70
2023-02-23T12:10:28.179Z,61.60
2023-02-23T12:13:00.896Z,61.30
2023-02-23T12:15:43.453Z,61.30
2023-02-23T12:18:33.462Z,61.10
2023-02-23T12:21:04.993Z,60.90
2023-02-23T12:23:33.769Z,60.60
2023-02-23T12:26:30.148Z,60.20
2023-02-23T12:29:02.681Z,59.80
2023-02-23T12:31:35.626Z,59.60
2023-02-23T12:34:09.643Z,59.50
2023-02-23T12:36:42.818Z,59.70
2023-02-23T12:39:32.809Z,60.00
2023-02-23T12:42:23.106Z,60.30
2023-02-23T12:44:53.155Z,60.50
2023-02-23T12:47:20.172Z,60.80
2023-02-23T12:50:13.512Z,61.00
2023-02-23T12:52:44.852Z,61.00
2023-02-23T12:55:14.601Z,60.90
2023-02-23T12:57:58.960Z,60.80
2023-02-23T13:00:32.018Z,60.60
2023-02-23T13:03:17.568Z,60.50
2023-02-23T13:06:01.775Z,60.30
2023-02-23T13:08:28.666Z,60.40
2023-02-23T13:11:14.264Z,60.60
2023-02-23T13:13:47.136Z,60.80
2023-02-23T13:16:17.393Z,60.60
2023-02-23T13:18:51.473Z,60.40
2023-02-23T13:21:33.649Z,60.10
2023-02-23T13:24:22.135Z,59.80
2023-02-23T13:26:49.014Z,59.80
2023-02-23T13:29:29.271Z,59.80
2023-02-23T13:31:56.401Z,59.80
2023-02-23T13:34:26.216Z,60.00
2023-02-23T13:36:53.845Z,60.20
2023-02-23T13:39:26.691Z,60.50
2023-02-23T13:42:09.617Z,60.60
2023-02-23T13:44:39.282Z,60.60
2023-02-23T13:47:06.215Z,60.80
2023-02-23T13:49:39.451Z,60.90
2023-02-23T13:52:21.356Z,61.00
2023-02-23T13:54:57.059Z,61.00
2023-02-23T13:57:24.838Z,61.10
2023-02-23T13:59:52.668Z,61.20
2023-02-23T14:02:28.953Z,61.20
2023-02-23T14:05:25.394Z,61.30
2023-02-23T14:07:53.998Z,61.40
2023-02-23T14:10:22.561Z,61.60
2023-02-23T14:13:08.236Z,61.70
2023-02-23T14:15:35.232Z,61.80
2023-02-23T14:18:04.123Z,61.70
2023-02-23T14:20:39.940Z,61.60
2023-02-23T14:23:21.795Z,61.60
2023-02-23T14:25:52.694Z,61.70
2023-02-23T14:28:22.291Z,61.70
2023-02-23T14:30:59.368Z,61.80
2023-02-23T14:33:48.719Z,61.80
2023-02-23T14:36:21.653Z,61.90
2023-02-23T14:39:01.516Z,62.00
2023-02-23T14:41:35.513Z,61.90
2023-02-23T14:44:34.276Z,61.90
2023-02-23T14:47:03.890Z,62.00
2023-02-23T14:49:35.858Z,62.20
2023-02-23T14:52:13.816Z,62.40
2023-02-23T14:54:41.260Z,62.50
2023-02-23T14:57:26.260Z,62.50
2023-02-23T15:00:00.984Z,62.60
2023-02-23T15:02:29.072Z,62.60
2023-02-23T15:04:56.588Z,62.70
2023-02-23T15:07:31.128Z,62.80
2023-02-23T15:09:59.280Z,62.80
2023-02-23T15:12:30.857Z,62.90
2023-02-23T15:15:00.200Z,63.00
2023-02-23T15:17:30.862Z,63.10
2023-02-23T15:20:14.375Z,63.10
2023-02-23T15:22:46.895Z,63.20
2023-02-23T15:25:21.588Z,63.20
2023-02-23T15:27:49.191Z,63.40
2023-02-23T15:30:19.402Z,63.40
2023-02-23T15:32:46.486Z,63.40
2023-02-23T15:35:13.744Z,63.40
2023-02-23T15:40:15.227Z,63.70
2023-02-23T15:42:49.894Z,63.80
2023-02-23T15:45:43.663Z,63.70
2023-02-23T15:48:18.435Z,63.80
2023-02-23T15:50:50.302Z,63.80
2023-02-23T15:53:24.344Z,63.90
2023-02-23T15:55:54.281Z,63.90
2023-02-23T15:58:22.772Z,64.20
2023-02-23T16:00:54.585Z,64.10
2023-02-23T16:03:32.031Z,64.20
2023-02-23T16:06:01.447Z,64.30
2023-02-23T16:08:29.757Z,64.50
2023-02-23T16:11:12.755Z,64.70
2023-02-23T16:13:43.870Z,64.70
2023-02-23T16:16:20.209Z,64.80
2023-02-23T16:18:50.945Z,64.80
2023-02-23T16:21:21.605Z,64.90
2023-02-23T16:23:49.720Z,64.90
2023-02-23T16:26:16.672Z,64.90
2023-02-23T16:28:45.432Z,64.90
2023-02-23T16:31:16.889Z,65.10
2023-02-23T16:33:45.022Z,65.20
2023-02-23T16:36:12.036Z,65.20
2023-02-23T16:38:40.371Z,65.40
2023-02-23T16:41:13.982Z,65.40
2023-02-23T16:43:40.878Z,65.60
2023-02-23T16:46:07.813Z,65.80
2023-02-23T16:48:34.768Z,66.00
2023-02-23T16:51:03.151Z,66.20
2023-02-23T16:53:30.106Z,66.10
2023-02-23T16:56:01.245Z,66.20
2023-02-23T16:58:30.804Z,66.30
2023-02-23T17:00:57.660Z,66.30
2023-02-23T17:03:26.284Z,66.30
2023-02-23T17:05:53.584Z,66.40
2023-02-23T17:08:20.653Z,66.60
2023-02-23T17:10:49.097Z,66.50
2023-02-23T17:13:18.197Z,66.60
2023-02-23T17:15:50.720Z,66.50
2023-02-23T17:18:18.394Z,66.50
2023-02-23T17:20:45.497Z,66.80
2023-02-23T17:23:12.446Z,66.70
2023-02-23T17:25:39.329Z,66.80
2023-02-23T17:28:06.391Z,66.90
2023-02-23T17:30:33.650Z,67.10
2023-02-23T17:33:01.266Z,67.40
2023-02-23T17:35:28.358Z,67.50
2023-02-23T17:37:55.308Z,67.50
2023-02-23T17:40:26.490Z,67.60
2023-02-23T17:42:53.610Z,67.90
2023-02-23T17:45:20.493Z,67.90
2023-02-23T17:47:47.412Z,67.90
2023-02-23T17:50:14.724Z,67.80
2023-02-23T17:52:41.542Z,68.00
2023-02-23T17:55:12.382Z,68.00
2023-02-23T17:58:05.192Z,67.90
2023-02-23T18:00:37.913Z,68.00
2023-02-23T18:03:04.837Z,68.20
2023-02-23T18:05:31.784Z,68.30
2023-02-23T18:07:58.702Z,68.40
2023-02-23T18:10:25.692Z,68.50
2023-02-23T18:12:53.705Z,68.60
2023-02-23T18:15:21.483Z,68.50
2023-02-23T18:17:48.803Z,68.60
2023-02-23T18:20:16.439Z,68.60
2023-02-23T18:22:44.275Z,68.60
2023-02-23T18:25:26.014Z,68.70
2023-02-23T18:27:54.344Z,69.00
2023-02-23T18:30:24.792Z,68.90
2023-02-23T18:32:55.727Z,68.80
2023-02-23T18:35:22.592Z,68.90
2023-02-23T18:37:49.952Z,69.00
2023-02-23T18:40:21.653Z,69.20
2023-02-23T18:42:48.835Z,69.10
2023-02-23T18:45:16.079Z,69.00
2023-02-23T18:47:43.269Z,69.20
2023-02-23T18:50:11.903Z,69.50
2023-02-23T18:52:40.848Z,69.50
2023-02-23T18:55:08.693Z,69.60
2023-02-23T18:57:35.572Z,69.60
2023-02-23T19:00:02.946Z,69.40
2023-02-23T19:02:29.782Z,69.60
2023-02-23T19:05:03.015Z,69.40
2023-02-23T19:07:33.261Z,69.50
2023-02-23T19:10:02.321Z,69.60
2023-02-23T19:12:30.052Z,69.60
2023-02-23T19:14:57.862Z,69.70
2023-02-23T19:17:25.328Z,69.80
2023-02-23T19:19:55.664Z,69.80
2023-02-23T19:22:24.699Z,70.00
2023-02-23T19:24:52.174Z,70.10
2023-02-23T19:27:19.651Z,70.20
2023-02-23T19:29:47.173Z,70.20
2023-02-23T19:32:16.649Z,70.20
2023-02-23T19:34:44.069Z,70.40
2023-02-23T19:37:11.057Z,70.40
2023-02-23T19:39:38.088Z,70.50
2023-02-23T19:42:05.317Z,70.60
2023-02-23T19:44:32.478Z,70.50
2023-02-23T19:46:59.597Z,70.60
2023-02-23T19:49:26.736Z,70.40
2023-02-23T19:51:53.728Z,70.40
2023-02-23T19:54:21.008Z,70.40
2023-02-23T19:56:50.047Z,70.60
2023-02-23T19:59:16.968Z,70.70
2023-02-23T20:01:46.027Z,70.80
2023-02-23T20:04:12.996Z,70.80
2023-02-23T20:06:47.334Z,70.80
2023-02-23T20:09:14.478Z,70.60
2023-02-23T20:11:42.899Z,70.70
2023-02-23T20:14:10.969Z,70.60
2023-02-23T20:16:38.066Z,70.50
2023-02-23T20:19:06.697Z,70.70
2023-02-23T20:21:34.085Z,70.70
2023-02-23T20:24:01.900Z,70.80
2023-02-23T20:26:31.090Z,70.90
2023-02-23T20:28:58.634Z,70.80
2023-02-23T20:31:30.229Z,70.80
2023-02-23T20:33:58.718Z,70.90
2023-02-23T20:36:26.367Z,70.90
2023-02-23T20:38:53.382Z,71.00
2023-02-23T20:41:21.084Z,71.10
2023-02-23T20:43:48.100Z,71.20
2023-02-23T20:46:16.296Z,71.20
2023-02-23T20:48:43.509Z,71.10
2023-02-23T20:51:13.077Z,71.30
2023-02-23T20:53:40.277Z,71.40
2023-02-23T20:56:07.993Z,71.50
2023-02-23T20:58:34.895Z,71.60
2023-02-23T21:01:11.005Z,71.70
2023-02-23T21:03:37.885Z,71.70
2023-02-23T21:06:04.823Z,71.60
2023-02-23T21:08:31.813Z,71.70
2023-02-23T21:11:03.959Z,71.90
2023-02-23T21:13:30.883Z,71.80
2023-02-23T21:16:02.203Z,71.80
2023-02-23T21:18:29.730Z,71.80
2023-02-23T21:20:57.054Z,71.90
2023-02-23T21:23:24.333Z,71.90
2023-02-23T21:25:53.470Z,71.80
2023-02-23T21:28:20.955Z,71.90
2023-02-23T21:30:48.709Z,72.00
2023-02-23T21:33:15.667Z,72.00
2023-02-23T21:35:42.573Z,72.00
2023-02-23T21:38:10.587Z,72.00
2023-02-23T21:40:42.502Z,72.00
2023-02-23T21:43:09.509Z,72.10
2023-02-23T21:45:38.746Z,72.00
2023-02-23T21:48:05.715Z,71.90
2023-02-23T21:50:32.783Z,71.90
2023-02-23T21:52:59.831Z,71.70
2023-02-23T21:55:26.795Z,71.60
2023-02-23T21:57:53.854Z,71.40
2023-02-23T22:00:21.894Z,71.50
2023-02-23T22:02:49.832Z,71.50
2023-02-23T22:05:17.565Z,71.60
2023-02-23T22:07:52.230Z,71.50
2023-02-23T22:10:23.596Z,71.50
2023-02-23T22:12:56.136Z,71.50
2023-02-23T22:15:29.166Z,71.60
2023-02-23T22:17:56.912Z,71.80
2023-02-23T22:20:23.914Z,71.80
2023-02-23T22:22:51.101Z,71.80
2023-02-23T22:25:19.286Z,71.80
2023-02-23T22:27:46.254Z,71.70
2023-02-23T22:30:14.311Z,71.70
2023-02-23T22:32:42.761Z,71.80
2023-02-23T22:35:10.418Z,71.90
2023-02-23T22:37:39.953Z,72.00
2023-02-23T22:40:17.055Z,72.00
2023-02-23T22:42:48.532Z,72.00
2023-02-23T22:45:16.309Z,71.90
2023-02-23T22:47:43.324Z,71.80
2023-02-23T22:50:12.268Z,71.90
2023-02-23T22:52:39.212Z,71.90
2023-02-23T22:55:06.296Z,72.00
2023-02-23T22:57:33.241Z,72.10
2023-02-23T23:00:00.781Z,72.20
2023-02-23T23:02:32.204Z,72.20
2023-02-23T23:04:59.863Z,72.30
2023-02-23T23:07:26.740Z,72.30
2023-02-23T23:09:53.752Z,72.20
2023-02-23T23:12:20.744Z,72.20
2023-02-23T23:14:47.748Z,72.20
2023-02-23T23:17:15.482Z,72.20
2023-02-23T23:19:42.442Z,72.30
2023-02-23T23:22:14.523Z,72.50
2023-02-23T23:24:46.342Z,72.80
2023-02-23T23:27:14.772Z,72.80
2023-02-23T23:29:45.830Z,72.50
2023-02-23T23:32:17.440Z,72.50
2023-02-23T23:34:46.235Z,72.40
2023-02-23T23:37:14.199Z,72.30
2023-02-23T23:39:41.145Z,72.50
2023-02-23T23:42:08.087Z,72.50
2023-02-23T23:44:35.129Z,72.50
2023-02-23T23:47:05.598Z,72.80
2023-02-23T23:49:38.095Z,72.70
2023-02-23T23:52:05.806Z,72.50
2023-02-23T23:54:34.240Z,72.70
2023-02-23T23:57:05.827Z,72.70
2023-02-23T23:59:34.015Z,72.70
